Time;durP1;ratioP1;P1;durP2;ratioP2;P2;SDS_P1;SDS_P2;PMS_P1;PMS_P2;Temp;Humidity;BMP_temperature;BMP_pressure;BME280_temperature;BME280_humidity;BME280_pressure;Samples;Min_cycle;Max_cycle;Signal;HPM_P1;HPM_P2
2021/10/11 00:02:19;;;;;;;1.67;1.40;;;14.40;82.20;;;;;;5013422;28;20026;-79
2021/10/11 00:04:44;;;;;;;2.83;1.45;;;14.40;82.20;;;;;;5017316;28;20019;-78
2021/10/11 00:07:10;;;;;;;2.45;1.20;;;14.40;82.30;;;;;;5019800;28;20048;-79
2021/10/11 00:09:36;;;;;;;2.65;1.08;;;14.40;82.30;;;;;;5014343;28;20437;-79
2021/10/11 00:12:03;;;;;;;2.60;1.17;;;14.40;82.20;;;;;;5012812;28;20161;-78
2021/10/11 00:14:28;;;;;;;3.55;1.50;;;14.40;82.20;;;;;;5007152;28;20489;-80
2021/10/11 00:16:54;;;;;;;1.88;1.10;;;14.40;82.20;;;;;;5007464;28;20022;-81
2021/10/11 00:19:19;;;;;;;2.22;1.00;;;14.40;82.20;;;;;;5007132;28;20022;-79
2021/10/11 00:21:46;;;;;;;2.28;0.90;;;14.40;82.10;;;;;;5008832;28;20029;-78
2021/10/11 00:24:11;;;;;;;2.30;0.95;;;14.40;82.10;;;;;;5013439;28;20057;-79
2021/10/11 00:26:37;;;;;;;3.00;1.27;;;14.50;82.10;;;;;;5007319;28;20441;-79
2021/10/11 00:29:03;;;;;;;2.25;0.98;;;14.40;82.00;;;;;;5006385;28;20029;-78
2021/10/11 00:31:29;;;;;;;2.55;1.27;;;14.40;82.10;;;;;;5007133;28;20388;-78
2021/10/11 00:33:56;;;;;;;2.65;1.10;;;14.40;82.10;;;;;;5007070;28;20030;-78
2021/10/11 00:36:22;;;;;;;1.80;0.90;;;14.40;82.20;;;;;;5006243;28;20021;-78
2021/10/11 00:38:48;;;;;;;1.33;1.00;;;14.40;82.20;;;;;;5007517;28;20034;-79
2021/10/11 00:41:13;;;;;;;2.40;0.95;;;14.40;82.10;;;;;;5006678;28;20394;-79
2021/10/11 00:43:39;;;;;;;3.40;1.08;;;14.30;82.10;;;;;;5006676;28;20036;-80
2021/10/11 00:46:06;;;;;;;1.77;1.13;;;14.30;82.20;;;;;;5006940;28;20036;-80
2021/10/11 00:48:31;;;;;;;2.20;1.08;;;14.30;82.20;;;;;;5004363;28;20030;-79
2021/10/11 00:50:57;;;;;;;2.70;1.20;;;14.20;82.20;;;;;;5006769;28;20033;-79
2021/10/11 00:53:23;;;;;;;2.28;1.00;;;14.30;82.30;;;;;;5006811;28;20030;-79
2021/10/11 00:55:48;;;;;;;1.75;1.10;;;14.20;82.30;;;;;;5006814;28;20127;-79
2021/10/11 00:58:14;;;;;;;1.75;0.98;;;14.20;82.40;;;;;;5009322;28;20116;-79
2021/10/11 01:00:39;;;;;;;2.40;1.05;;;14.10;82.40;;;;;;5010037;28;20041;-79
2021/10/11 01:03:05;;;;;;;3.65;1.20;;;14.10;82.40;;;;;;5010518;28;20022;-79
2021/10/11 01:05:30;;;;;;;2.35;1.10;;;14.10;82.40;;;;;;5006377;28;20527;-79
2021/10/11 01:07:56;;;;;;;2.78;1.48;;;14.10;82.40;;;;;;5010447;28;20429;-79
2021/10/11 01:10:22;;;;;;;2.05;1.10;;;14.10;82.40;;;;;;5010047;28;20453;-78
2021/10/11 01:12:47;;;;;;;3.47;1.15;;;14.10;82.40;;;;;;5008056;28;20057;-78
2021/10/11 01:15:13;;;;;;;3.70;1.00;;;14.10;82.50;;;;;;5019024;28;20473;-78
2021/10/11 01:17:38;;;;;;;1.98;1.10;;;14.10;83.20;;;;;;5009165;28;20022;-79
2021/10/11 01:20:04;;;;;;;2.40;1.15;;;14.10;82.60;;;;;;5008714;28;20033;-79
2021/10/11 01:22:39;;;;;;;1.63;0.90;;;14.10;82.60;;;;;;5010001;28;20079;-78
2021/10/11 01:25:07;;;;;;;3.03;1.17;;;14.10;82.60;;;;;;5009540;28;20439;-78
2021/10/11 01:27:34;;;;;;;2.13;1.10;;;14.10;82.50;;;;;;5014866;28;20062;-78
2021/10/11 01:30:00;;;;;;;2.30;1.30;;;14.10;82.50;;;;;;5010102;28;20026;-79
2021/10/11 01:32:25;;;;;;;3.45;1.40;;;14.10;82.50;;;;;;5009903;28;20033;-78
2021/10/11 01:34:52;;;;;;;2.45;1.10;;;14.10;82.50;;;;;;5008281;28;20026;-79
2021/10/11 01:37:17;;;;;;;3.53;1.23;;;14.10;82.50;;;;;;5008218;28;20030;-79
2021/10/11 01:39:43;;;;;;;4.13;1.30;;;14.10;82.50;;;;;;5009536;28;20068;-79
2021/10/11 01:42:09;;;;;;;3.83;1.27;;;14.10;82.50;;;;;;5017046;28;20032;-79
2021/10/11 01:44:35;;;;;;;2.33;1.20;;;14.10;82.50;;;;;;5012068;28;20026;-79
2021/10/11 01:47:02;;;;;;;2.60;1.05;;;14.10;82.60;;;;;;5008833;28;20480;-79
2021/10/11 01:49:27;;;;;;;2.13;1.10;;;14.10;82.70;;;;;;5009571;28;20026;-79
2021/10/11 01:51:53;;;;;;;2.72;1.08;;;14.00;82.60;;;;;;5016009;28;20536;-79
2021/10/11 01:54:18;;;;;;;2.05;1.10;;;14.00;82.60;;;;;;5009365;28;20050;-79
2021/10/11 01:56:44;;;;;;;2.88;1.30;;;14.00;82.70;;;;;;5009491;28;20467;-80
2021/10/11 01:59:09;;;;;;;2.35;1.30;;;13.90;82.70;;;;;;5004868;28;20109;-80
2021/10/11 02:01:35;;;;;;;1.90;1.02;;;13.90;82.80;;;;;;5003423;28;20045;-79
2021/10/11 02:04:00;;;;;;;4.13;1.40;;;13.80;82.80;;;;;;5000028;28;20125;-80
2021/10/11 02:06:26;;;;;;;2.47;1.20;;;13.80;82.90;;;;;;5009365;28;20437;-79
2021/10/11 02:08:52;;;;;;;2.53;1.00;;;13.70;82.90;;;;;;5008522;28;20038;-78
2021/10/11 02:11:17;;;;;;;3.58;1.20;;;13.70;83.10;;;;;;5009118;28;20018;-79
2021/10/11 02:13:43;;;;;;;2.28;1.20;;;13.60;83.10;;;;;;5009122;28;20030;-79
2021/10/11 02:16:08;;;;;;;2.45;1.25;;;13.60;83.20;;;;;;5009134;28;20147;-79
2021/10/11 02:18:34;;;;;;;2.10;1.10;;;13.50;83.20;;;;;;5008549;28;20486;-79
2021/10/11 02:21:00;;;;;;;1.50;1.10;;;13.60;83.30;;;;;;5005994;28;20063;-78
2021/10/11 02:23:26;;;;;;;2.05;1.00;;;13.50;83.20;;;;;;5008862;28;20371;-78
2021/10/11 02:25:52;;;;;;;4.95;1.80;;;13.50;83.20;;;;;;5007650;28;20559;-79
2021/10/11 02:28:17;;;;;;;2.45;1.02;;;13.40;83.20;;;;;;5008063;28;20026;-79
2021/10/11 02:30:43;;;;;;;2.40;1.10;;;13.40;83.30;;;;;;5006572;28;20057;-80
2021/10/11 02:33:08;;;;;;;3.65;1.38;;;13.40;83.40;;;;;;5008962;28;20041;-80
2021/10/11 02:35:34;;;;;;;1.92;1.17;;;13.30;83.40;;;;;;5006849;28;20117;-81
2021/10/11 02:37:59;;;;;;;3.65;1.25;;;13.30;83.40;;;;;;5004418;28;20034;-80
2021/10/11 02:40:25;;;;;;;3.60;1.52;;;13.30;83.40;;;;;;4995095;28;20038;-79
2021/10/11 02:42:51;;;;;;;2.58;1.30;;;13.20;83.40;;;;;;5009038;28;20029;-79
2021/10/11 02:45:16;;;;;;;4.13;1.30;;;13.20;83.50;;;;;;5006474;28;20114;-79
2021/10/11 02:47:42;;;;;;;4.88;1.40;;;13.20;83.50;;;;;;5044642;28;20387;-80
2021/10/11 02:50:08;;;;;;;5.15;1.60;;;13.20;83.50;;;;;;5014802;28;20022;-79
2021/10/11 02:52:33;;;;;;;3.05;1.10;;;13.10;83.50;;;;;;5008723;28;20469;-79
2021/10/11 02:55:00;;;;;;;4.00;1.30;;;13.10;83.60;;;;;;5008489;28;20026;-79
2021/10/11 02:57:26;;;;;;;3.42;1.15;;;13.00;83.60;;;;;;5006736;28;20026;-79
2021/10/11 02:59:52;;;;;;;2.80;1.50;;;13.00;83.70;;;;;;5008172;28;20051;-79
2021/10/11 03:02:18;;;;;;;3.10;1.17;;;13.00;83.60;;;;;;5007712;28;20030;-80
2021/10/11 03:04:44;;;;;;;1.95;1.23;;;13.00;83.70;;;;;;5008588;28;20082;-79
2021/10/11 03:07:10;;;;;;;2.70;1.23;;;12.90;83.60;;;;;;5007939;28;20030;-79
2021/10/11 03:09:35;;;;;;;2.15;1.00;;;12.90;83.60;;;;;;5008303;28;20026;-79
2021/10/11 03:12:01;;;;;;;4.03;1.30;;;12.90;83.60;;;;;;5008231;28;20037;-79
2021/10/11 03:14:27;;;;;;;2.35;1.08;;;12.90;83.60;;;;;;4999770;28;20035;-79
2021/10/11 03:16:52;;;;;;;1.50;1.02;;;12.90;83.50;;;;;;5002874;28;20036;-79
2021/10/11 03:19:18;;;;;;;3.05;1.00;;;12.90;83.40;;;;;;5007467;28;20030;-80
2021/10/11 03:21:43;;;;;;;2.45;0.90;;;12.90;83.40;;;;;;5008387;28;20145;-80
2021/10/11 03:24:09;;;;;;;2.33;1.00;;;12.90;83.40;;;;;;5008213;28;20034;-80
2021/10/11 03:26:34;;;;;;;1.45;0.93;;;12.90;83.30;;;;;;5007807;28;20022;-80
2021/10/11 03:29:00;;;;;;;2.85;1.15;;;12.90;83.30;;;;;;5006601;28;20034;-79
2021/10/11 03:31:25;;;;;;;2.70;1.10;;;12.80;83.20;;;;;;5009031;28;20116;-80
2021/10/11 03:33:51;;;;;;;1.90;1.00;;;12.80;83.20;;;;;;5007839;28;20079;-80
2021/10/11 03:36:16;;;;;;;3.30;1.20;;;12.80;83.10;;;;;;5008441;28;20022;-80
2021/10/11 03:38:42;;;;;;;2.67;1.17;;;12.80;83.10;;;;;;5003799;28;20045;-79
2021/10/11 03:41:07;;;;;;;1.50;0.80;;;12.70;83.10;;;;;;5008233;28;20034;-79
2021/10/11 03:43:33;;;;;;;1.65;0.90;;;12.70;83.20;;;;;;5007643;28;20034;-79
2021/10/11 03:45:59;;;;;;;1.80;0.95;;;12.60;83.20;;;;;;5007464;28;20082;-78
2021/10/11 03:48:24;;;;;;;3.22;1.10;;;12.60;83.30;;;;;;5007369;28;20101;-79
2021/10/11 03:50:50;;;;;;;1.95;1.00;;;12.50;83.20;;;;;;5007116;28;20075;-79
2021/10/11 03:53:16;;;;;;;3.25;1.20;;;12.50;83.20;;;;;;5003714;28;20098;-79
2021/10/11 03:55:42;;;;;;;2.30;1.02;;;12.40;83.30;;;;;;4999748;28;20023;-77
2021/10/11 03:58:09;;;;;;;2.72;1.23;;;12.40;83.40;;;;;;5005735;28;20174;-77
2021/10/11 04:00:34;;;;;;;3.22;1.08;;;12.40;83.40;;;;;;5002615;28;20046;-79
2021/10/11 04:03:03;;;;;;;1.80;1.05;;;12.40;83.40;;;;;;5006803;28;20022;-78
2021/10/11 04:05:28;;;;;;;2.38;0.90;;;12.30;83.40;;;;;;5000409;28;20505;-79
2021/10/11 04:07:57;;;;;;;2.72;1.38;;;12.30;83.30;;;;;;5006544;28;20059;-77
2021/10/11 04:10:30;;;;;;;1.95;1.05;;;12.30;83.30;;;;;;5007879;28;20033;-77
2021/10/11 04:13:01;;;;;;;;;;;12.30;83.30;;;;;;5007904;28;20033;-77
2021/10/11 04:15:27;;;;;;;2.70;0.85;;;12.30;83.20;;;;;;5007384;28;19963;-79
2021/10/11 04:17:54;;;;;;;4.13;1.15;;;12.30;83.30;;;;;;5007124;28;20062;-78
2021/10/11 04:20:20;;;;;;;3.08;1.10;;;12.20;83.30;;;;;;5001984;28;20018;-78
2021/10/11 04:22:45;;;;;;;2.55;1.20;;;12.20;83.30;;;;;;5007110;28;20153;-78
2021/10/11 04:25:11;;;;;;;3.72;1.30;;;12.20;83.30;;;;;;5009383;28;20030;-78
2021/10/11 04:27:37;;;;;;;2.90;1.13;;;12.20;83.30;;;;;;5017932;28;20476;-78
2021/10/11 04:30:03;;;;;;;1.58;0.98;;;12.20;83.30;;;;;;5004877;28;20029;-77
2021/10/11 04:32:28;;;;;;;2.90;1.20;;;12.10;83.20;;;;;;5010052;28;20101;-78
2021/10/11 04:34:54;;;;;;;2.95;1.10;;;12.10;83.30;;;;;;5010676;28;20118;-78
2021/10/11 04:37:19;;;;;;;2.15;1.00;;;12.10;83.20;;;;;;5010448;28;20396;-78
2021/10/11 04:39:45;;;;;;;1.30;1.00;;;12.10;83.10;;;;;;5009618;28;20030;-78
2021/10/11 04:42:10;;;;;;;3.58;1.08;;;12.10;83.20;;;;;;5010477;28;20486;-77
2021/10/11 04:44:36;;;;;;;3.08;1.20;;;12.10;83.20;;;;;;5009893;28;20030;-78
2021/10/11 04:47:01;;;;;;;2.90;1.10;;;12.10;83.20;;;;;;5009410;28;20050;-77
2021/10/11 04:49:27;;;;;;;2.22;0.90;;;12.10;83.20;;;;;;5010929;28;20100;-77
2021/10/11 04:51:52;;;;;;;3.42;1.20;;;12.10;83.20;;;;;;5010483;28;20030;-77
2021/10/11 04:54:18;;;;;;;1.98;1.00;;;12.10;83.70;;;;;;5009945;28;20094;-78
2021/10/11 04:56:43;;;;;;;1.92;0.90;;;12.00;83.00;;;;;;5003159;28;20015;-77
2021/10/11 04:59:09;;;;;;;1.88;1.00;;;12.00;83.00;;;;;;5007224;28;20025;-77
2021/10/11 05:01:34;;;;;;;2.03;0.90;;;12.10;83.00;;;;;;5010577;28;20034;-78
2021/10/11 05:04:00;;;;;;;2.05;1.10;;;12.10;82.90;;;;;;5008366;28;20484;-79
2021/10/11 05:06:25;;;;;;;3.08;1.05;;;12.00;82.80;;;;;;5009254;28;20476;-79
2021/10/11 05:08:51;;;;;;;1.98;1.00;;;12.00;82.80;;;;;;5009489;28;20412;-78
2021/10/11 05:11:17;;;;;;;1.77;1.10;;;12.00;82.90;;;;;;5010379;28;20029;-78
2021/10/11 05:13:42;;;;;;;2.42;1.08;;;12.00;82.80;;;;;;5006293;28;20049;-78
2021/10/11 05:16:13;;;;;;;4.20;1.15;;;12.00;82.70;;;;;;5009072;28;20037;-77
2021/10/11 05:18:38;;;;;;;2.42;0.90;;;12.00;82.50;;;;;;5011245;28;20033;-78
2021/10/11 05:21:05;;;;;;;2.72;1.10;;;12.00;82.40;;;;;;5013152;28;20033;-80
2021/10/11 05:23:31;;;;;;;3.05;1.20;;;12.00;82.50;;;;;;5002710;28;20022;-80
2021/10/11 05:25:57;;;;;;;1.98;0.85;;;12.00;82.50;;;;;;5009156;28;20159;-80
2021/10/11 05:28:22;;;;;;;1.45;0.95;;;12.00;82.40;;;;;;5009524;28;20384;-80
2021/10/11 05:30:49;;;;;;;2.22;0.88;;;12.00;82.40;;;;;;5009273;28;20033;-80
2021/10/11 05:33:19;;;;;;;1.73;0.82;;;12.00;82.30;;;;;;5008753;28;20071;-80
2021/10/11 05:35:45;;;;;;;3.13;1.00;;;12.00;82.30;;;;;;5009143;28;20059;-80
2021/10/11 05:38:11;;;;;;;1.98;0.90;;;12.00;82.30;;;;;;5007581;28;20030;-81
2021/10/11 05:40:37;;;;;;;2.70;1.10;;;11.90;82.20;;;;;;5010020;28;20046;-80
2021/10/11 05:43:03;;;;;;;1.95;0.80;;;11.90;82.30;;;;;;5007797;28;20030;-80
2021/10/11 05:45:29;;;;;;;3.13;1.02;;;11.90;82.30;;;;;;5009251;28;20110;-80
2021/10/11 05:47:54;;;;;;;3.38;1.00;;;11.80;82.40;;;;;;5008924;28;20052;-82
2021/10/11 05:50:20;;;;;;;2.10;0.90;;;11.80;82.40;;;;;;5008426;28;20030;-82
2021/10/11 05:52:46;;;;;;;2.95;1.02;;;11.80;82.40;;;;;;5007568;28;20529;-82
2021/10/11 05:55:12;;;;;;;3.03;1.08;;;11.80;82.50;;;;;;5009225;28;20126;-82
2021/10/11 05:57:37;;;;;;;2.95;1.02;;;11.70;82.50;;;;;;5008361;28;20068;-82
2021/10/11 06:00:04;;;;;;;2.70;1.20;;;11.70;82.70;;;;;;5007259;28;20053;-83
2021/10/11 06:02:29;;;;;;;3.45;1.40;;;11.70;82.70;;;;;;5010404;28;20030;-83
2021/10/11 06:04:55;;;;;;;2.22;1.10;;;11.70;82.80;;;;;;5003463;28;20353;-83
2021/10/11 06:07:21;;;;;;;3.28;1.20;;;11.70;82.80;;;;;;5008550;28;20018;-82
2021/10/11 06:09:46;;;;;;;2.28;1.10;;;11.70;82.70;;;;;;5006345;28;20030;-82
2021/10/11 06:12:12;;;;;;;1.83;1.05;;;11.70;82.70;;;;;;5007904;28;20079;-81
2021/10/11 06:14:37;;;;;;;2.85;1.25;;;11.70;82.70;;;;;;5007321;28;20105;-82
2021/10/11 06:17:03;;;;;;;1.65;1.00;;;11.70;82.50;;;;;;5004294;28;20026;-82
2021/10/11 06:19:28;;;;;;;2.50;1.00;;;11.80;82.50;;;;;;5007919;28;20030;-82
2021/10/11 06:21:54;;;;;;;3.63;1.20;;;11.80;82.50;;;;;;5007384;28;20046;-83
2021/10/11 06:24:19;;;;;;;1.73;0.90;;;11.80;82.30;;;;;;5008877;28;20032;-83
2021/10/11 06:26:45;;;;;;;2.85;1.08;;;11.90;82.20;;;;;;5007556;28;20029;-82
2021/10/11 06:29:10;;;;;;;3.90;1.10;;;12.00;82.20;;;;;;5008607;28;20026;-81
2021/10/11 06:31:36;;;;;;;3.25;1.10;;;12.00;82.10;;;;;;5005613;28;20074;-81
2021/10/11 06:34:02;;;;;;;4.75;1.33;;;12.00;82.00;;;;;;5007401;28;20037;-81
2021/10/11 06:36:28;;;;;;;2.95;1.20;;;12.00;82.00;;;;;;5007736;28;20037;-81
2021/10/11 06:38:54;;;;;;;3.47;1.10;;;12.00;81.90;;;;;;5009778;28;20029;-81
2021/10/11 06:41:20;;;;;;;3.00;1.10;;;12.10;81.90;;;;;;5007808;28;20086;-80
2021/10/11 06:43:45;;;;;;;3.60;1.00;;;12.10;81.80;;;;;;5007097;28;20026;-80
2021/10/11 06:46:11;;;;;;;3.08;1.23;;;12.20;81.70;;;;;;5007212;28;20045;-78
2021/10/11 06:48:36;;;;;;;3.53;1.35;;;12.20;81.60;;;;;;5007150;28;20018;-77
2021/10/11 06:51:03;;;;;;;3.80;1.30;;;12.20;81.50;;;;;;5009600;28;20030;-77
2021/10/11 06:53:29;;;;;;;2.92;1.10;;;12.20;81.60;;;;;;5008604;28;20053;-78
2021/10/11 06:55:55;;;;;;;3.55;1.40;;;12.20;81.60;;;;;;5002332;28;20459;-78
2021/10/11 06:58:20;;;;;;;2.25;1.30;;;12.20;81.70;;;;;;5005845;28;20040;-78
2021/10/11 07:00:46;;;;;;;3.03;1.08;;;12.30;81.70;;;;;;5007682;28;20373;-78
2021/10/11 07:03:11;;;;;;;4.47;1.60;;;12.30;81.60;;;;;;5007018;28;20113;-78
2021/10/11 07:05:37;;;;;;;2.78;0.93;;;12.40;81.60;;;;;;5009111;28;20090;-78
2021/10/11 07:08:09;;;;;;;2.10;0.85;;;12.40;81.50;;;;;;5019995;28;20034;-79
2021/10/11 07:10:35;;;;;;;6.43;1.30;;;12.40;81.50;;;;;;5018673;28;20023;-78
2021/10/11 07:13:02;;;;;;;2.15;1.17;;;12.40;81.50;;;;;;5006516;28;20166;-78
2021/10/11 07:15:29;;;;;;;4.18;1.20;;;12.40;81.50;;;;;;5006187;28;20048;-78
2021/10/11 07:17:55;;;;;;;3.38;0.93;;;12.40;81.40;;;;;;5014294;28;20565;-80
2021/10/11 07:20:21;;;;;;;1.90;1.00;;;12.40;81.40;;;;;;5037961;28;20046;-79
2021/10/11 07:22:46;;;;;;;1.73;0.90;;;12.50;81.30;;;;;;5007321;28;20563;-80
2021/10/11 07:25:12;;;;;;;2.72;1.00;;;12.50;81.20;;;;;;5009612;28;20054;-80
2021/10/11 07:27:37;;;;;;;2.50;1.00;;;12.60;81.30;;;;;;5006405;28;20052;-80
2021/10/11 07:30:04;;;;;;;2.97;1.10;;;12.60;81.30;;;;;;5006267;28;20489;-79
2021/10/11 07:32:29;;;;;;;2.63;0.93;;;12.60;81.20;;;;;;5014626;28;20030;-80
2021/10/11 07:34:55;;;;;;;3.42;1.20;;;12.60;81.10;;;;;;5008306;28;20065;-82
2021/10/11 07:37:21;;;;;;;3.88;1.10;;;12.70;81.10;;;;;;5014737;28;20064;-82
2021/10/11 07:39:46;;;;;;;3.53;1.23;;;12.70;81.00;;;;;;5015792;28;20029;-79
2021/10/11 07:42:12;;;;;;;3.50;1.20;;;12.80;80.90;;;;;;5006567;28;20494;-79
2021/10/11 07:44:38;;;;;;;3.30;1.20;;;12.80;80.80;;;;;;5009453;28;20120;-80
2021/10/11 07:47:03;;;;;;;1.90;1.00;;;12.80;80.70;;;;;;5006847;28;20428;-81
2021/10/11 07:49:29;;;;;;;4.00;1.30;;;12.90;80.70;;;;;;5005902;28;20376;-78
2021/10/11 07:51:54;;;;;;;2.38;1.10;;;12.90;80.50;;;;;;5048550;28;20769;-81
2021/10/11 07:54:20;;;;;;;2.17;1.15;;;13.00;80.40;;;;;;5048868;28;20028;-80
2021/10/11 07:56:46;;;;;;;3.88;1.05;;;13.00;80.30;;;;;;5006237;28;20018;-80
2021/10/11 07:59:12;;;;;;;2.47;1.08;;;13.10;80.30;;;;;;5003844;28;20029;-80
2021/10/11 08:01:37;;;;;;;4.93;1.23;;;13.10;80.30;;;;;;5011130;28;20038;-81
2021/10/11 08:04:03;;;;;;;2.03;1.02;;;13.10;80.30;;;;;;5006764;28;20042;-79
2021/10/11 08:06:30;;;;;;;3.15;1.05;;;13.10;80.30;;;;;;5007816;28;20680;-78
2021/10/11 08:08:56;;;;;;;3.10;1.10;;;13.20;80.30;;;;;;5031997;28;20050;-78
2021/10/11 08:11:21;;;;;;;3.70;1.20;;;13.20;80.10;;;;;;5010409;28;20066;-79
2021/10/11 08:13:47;;;;;;;3.38;1.20;;;13.30;80.10;;;;;;5007866;28;20061;-77
2021/10/11 08:16:13;;;;;;;3.70;1.10;;;13.30;80.10;;;;;;5012387;28;20029;-80
2021/10/11 08:18:38;;;;;;;3.55;1.15;;;13.30;80.00;;;;;;5015841;28;20033;-79
2021/10/11 08:21:04;;;;;;;3.42;1.00;;;13.40;79.90;;;;;;5013944;28;20061;-78
2021/10/11 08:23:35;;;;;;;4.47;1.40;;;13.50;79.80;;;;;;5027685;28;20046;-79
2021/10/11 08:26:04;;;;;;;3.17;1.25;;;13.50;79.80;;;;;;5013081;28;20590;-78
2021/10/11 08:28:30;;;;;;;5.00;1.30;;;13.50;79.80;;;;;;5033869;28;20099;-77
2021/10/11 08:30:56;;;;;;;3.13;1.10;;;13.50;79.60;;;;;;5011574;28;20045;-77
2021/10/11 08:33:21;;;;;;;3.28;1.20;;;13.60;79.70;;;;;;5018753;28;20484;-76
2021/10/11 08:35:47;;;;;;;4.00;1.40;;;13.70;79.70;;;;;;5019817;28;20046;-77
2021/10/11 08:38:12;;;;;;;3.35;1.25;;;13.80;79.60;;;;;;5043059;28;20029;-81
2021/10/11 08:40:38;;;;;;;2.22;1.23;;;13.90;79.50;;;;;;5011517;28;20107;-79
2021/10/11 08:43:04;;;;;;;4.43;1.20;;;13.90;79.30;;;;;;5018185;28;20063;-78
2021/10/11 08:45:29;;;;;;;3.25;1.20;;;14.00;79.20;;;;;;5011237;28;20034;-79
2021/10/11 08:47:55;;;;;;;3.70;1.40;;;14.10;79.10;;;;;;5008611;28;20124;-77
2021/10/11 08:50:20;;;;;;;3.05;1.30;;;14.20;79.00;;;;;;5010213;28;20021;-78
2021/10/11 08:52:49;;;;;;;3.47;1.17;;;14.30;78.80;;;;;;5010989;28;20409;-77
2021/10/11 08:55:15;;;;;;;2.15;1.30;;;14.30;78.70;;;;;;5009927;28;20034;-78
2021/10/11 08:57:40;;;;;;;3.55;1.30;;;14.40;78.80;;;;;;5011430;28;20484;-80
2021/10/11 09:00:19;;;;;;;3.25;1.23;;;14.40;78.70;;;;;;5008018;28;20080;-79
2021/10/11 09:02:56;;;;;;;2.85;1.23;;;14.40;78.70;;;;;;5011933;28;20049;-79
2021/10/11 09:05:33;;;;;;;3.92;1.30;;;14.40;78.70;;;;;;5011822;28;20091;-78
2021/10/11 09:08:06;;;;;;;2.22;1.02;;;14.50;78.80;;;;;;5011425;28;20030;-79
2021/10/11 09:10:32;;;;;;;;;;;14.60;78.60;;;;;;5006050;28;20064;-79
2021/10/11 09:12:59;;;;;;;4.18;1.20;;;14.60;78.60;;;;;;5010887;28;20032;-79
2021/10/11 09:15:31;;;;;;;4.43;1.13;;;14.60;78.60;;;;;;5004484;28;20022;-79
2021/10/11 09:18:05;;;;;;;4.30;1.55;;;14.70;78.70;;;;;;5006809;28;20045;-81
2021/10/11 09:20:31;;;;;;;3.30;1.20;;;14.70;78.60;;;;;;5008007;28;20106;-79
2021/10/11 09:22:59;;;;;;;2.92;0.98;;;14.80;78.40;;;;;;5006610;28;20018;-78
2021/10/11 09:25:35;;;;;;;4.65;1.30;;;14.90;78.40;;;;;;5008185;28;20022;-80
2021/10/11 09:28:02;;;;;;;2.78;1.23;;;14.90;78.40;;;;;;5007379;28;20113;-77
2021/10/11 09:30:31;;;;;;;4.43;1.52;;;14.90;78.40;;;;;;5008260;28;20026;-80
2021/10/11 09:33:15;;;;;;;4.47;1.98;;;14.90;78.30;;;;;;5008109;28;20101;-79
2021/10/11 09:35:41;;;;;;;3.50;1.38;;;14.90;78.40;;;;;;5013931;28;20041;-78
2021/10/11 09:38:28;;;;;;;5.30;1.90;;;15.00;78.50;;;;;;5003820;28;20045;-78
2021/10/11 09:40:57;;;;;;;2.80;1.23;;;15.00;78.60;;;;;;5002792;28;20049;-82
2021/10/11 09:43:28;;;;;;;5.25;1.38;;;15.10;78.50;;;;;;5002816;28;20022;-78
2021/10/11 09:45:54;;;;;;;2.35;1.13;;;15.20;78.40;;;;;;5007395;28;20034;-77
2021/10/11 09:48:22;;;;;;;2.42;1.20;;;15.20;78.40;;;;;;5005194;28;20018;-80
2021/10/11 09:50:48;;;;;;;5.18;1.65;;;15.30;78.40;;;;;;5008899;28;20108;-79
2021/10/11 09:53:23;;;;;;;2.70;1.40;;;15.30;78.30;;;;;;5003717;28;20018;-76
2021/10/11 09:55:53;;;;;;;2.65;1.33;;;15.30;78.20;;;;;;5003062;28;20052;-80
2021/10/11 09:58:19;;;;;;;5.72;1.67;;;15.40;78.30;;;;;;5004715;28;20075;-75
2021/10/11 10:00:51;;;;;;;3.45;1.50;;;15.40;78.20;;;;;;5006751;28;20669;-80
2021/10/11 10:03:36;;;;;;;;;;;;;;;;;;;;;
2021/10/11 10:06:10;;;;;;;3.55;1.30;;;15.40;78.20;;;;;;5002465;28;20022;-80
2021/10/11 10:08:40;;;;;;;3.92;1.30;;;15.40;78.20;;;;;;5005723;28;20044;-77
2021/10/11 10:11:07;;;;;;;5.97;3.17;;;15.50;78.30;;;;;;5007420;28;20105;-76
2021/10/11 10:13:46;;;;;;;15.40;9.70;;;15.50;78.20;;;;;;5005999;28;20026;-78
2021/10/11 10:16:13;;;;;;;5.32;2.85;;;15.60;78.30;;;;;;5004857;28;20053;-76
2021/10/11 10:18:41;;;;;;;5.50;3.13;;;15.60;78.30;;;;;;5001515;28;20380;-80
2021/10/11 10:21:07;;;;;;;7.80;2.47;;;15.70;78.10;;;;;;5002495;28;20067;-80
2021/10/11 10:23:35;;;;;;;5.95;2.22;;;15.80;78.00;;;;;;5004402;28;20026;-80
2021/10/11 10:26:04;;;;;;;3.47;1.70;;;15.80;77.90;;;;;;5008111;28;20090;-80
2021/10/11 10:28:48;;;;;;;4.25;1.60;;;15.90;77.90;;;;;;5004162;28;20475;-80
2021/10/11 10:31:27;;;;;;;3.03;1.27;;;16.00;77.90;;;;;;5008896;28;20099;-80
2021/10/11 10:33:53;;;;;;;6.53;2.20;;;16.10;77.60;;;;;;5005462;28;20621;-79
2021/10/11 10:36:21;;;;;;;3.50;1.40;;;16.10;77.40;;;;;;5006828;28;20508;-81
2021/10/11 10:39:08;;;;;;;3.47;1.50;;;16.20;77.30;;;;;;5003429;28;20018;-79
2021/10/11 10:41:35;;;;;;;9.07;1.83;;;16.20;77.20;;;;;;5004317;28;20078;-80
2021/10/11 10:44:20;;;;;;;5.00;1.38;;;16.30;77.20;;;;;;5002950;28;20087;-79
2021/10/11 10:47:03;;;;;;;4.70;1.90;;;16.40;77.00;;;;;;5007621;28;20078;-80
2021/10/11 10:49:34;;;;;;;4.65;1.40;;;16.40;76.70;;;;;;5005398;28;20037;-80
2021/10/11 10:52:13;;;;;;;4.72;1.38;;;16.50;76.60;;;;;;5010184;28;20040;-81
2021/10/11 10:54:42;;;;;;;3.70;1.30;;;16.60;76.30;;;;;;5008144;28;20060;-80
2021/10/11 10:57:09;;;;;;;3.08;1.15;;;16.60;76.00;;;;;;5005323;28;20022;-80
2021/10/11 10:59:36;;;;;;;7.20;1.48;;;16.60;75.70;;;;;;5004793;28;20030;-80
2021/10/11 11:02:10;;;;;;;4.28;1.10;;;16.60;75.30;;;;;;5001226;28;20046;-81
2021/10/11 11:04:36;;;;;;;2.53;1.08;;;16.60;75.10;;;;;;5000926;28;20025;-81
2021/10/11 11:07:06;;;;;;;3.25;1.00;;;16.70;75.30;;;;;;5001543;28;20532;-81
2021/10/11 11:09:44;;;;;;;3.88;1.10;;;16.80;75.10;;;;;;5003027;28;20495;-81
2021/10/11 11:12:11;;;;;;;2.15;1.00;;;16.90;74.70;;;;;;5011343;28;20026;-80
2021/10/11 11:14:41;;;;;;;3.42;1.10;;;16.90;74.20;;;;;;5013053;28;20023;-80
2021/10/11 11:17:08;;;;;;;4.82;1.20;;;17.00;74.00;;;;;;5038126;28;20033;-80
2021/10/11 11:19:38;;;;;;;3.90;1.17;;;17.00;73.30;;;;;;5028070;28;20438;-81
2021/10/11 11:22:07;;;;;;;4.22;1.05;;;17.10;73.20;;;;;;5005071;28;20071;-80
2021/10/11 11:24:34;;;;;;;4.05;0.90;;;17.30;73.00;;;;;;5006469;28;20025;-81
2021/10/11 11:27:02;;;;;;;4.00;1.00;;;17.40;72.40;;;;;;5005996;28;20538;-82
2021/10/11 11:29:29;;;;;;;3.45;1.13;;;17.50;72.00;;;;;;5006012;28;20037;-81
2021/10/11 11:31:55;;;;;;;6.43;1.30;;;17.50;71.80;;;;;;5009522;28;20079;-79
2021/10/11 11:34:21;;;;;;;3.40;0.95;;;17.60;70.60;;;;;;5007012;28;20030;-79
2021/10/11 11:36:51;;;;;;;6.13;1.10;;;17.70;70.60;;;;;;5005838;28;20014;-82
2021/10/11 11:39:18;;;;;;;4.00;1.10;;;17.90;70.30;;;;;;5001304;28;20461;-80
2021/10/11 11:41:55;;;;;;;2.60;0.80;;;18.00;70.00;;;;;;5018152;28;20033;-77
2021/10/11 11:44:26;;;;;;;2.65;0.90;;;18.00;69.80;;;;;;5007158;28;20034;-78
2021/10/11 11:47:03;;;;;;;2.78;1.08;;;18.10;69.30;;;;;;5033695;28;20403;-77
2021/10/11 11:49:29;;;;;;;3.75;0.93;;;18.10;69.40;;;;;;5038367;28;20095;-78
2021/10/11 11:52:09;;;;;;;1.45;0.52;;;18.10;69.10;;;;;;5044999;28;20480;-78
2021/10/11 11:54:37;;;;;;;1.58;0.65;;;18.10;68.90;;;;;;5023587;28;20452;-77
2021/10/11 11:57:02;;;;;;;1.88;0.70;;;18.10;68.70;;;;;;5031584;28;20030;-78
2021/10/11 11:59:28;;;;;;;2.20;0.70;;;18.10;68.70;;;;;;5016865;28;20075;-79
2021/10/11 12:01:54;;;;;;;3.05;1.02;;;18.10;68.60;;;;;;5018460;28;20039;-79
2021/10/11 12:04:21;;;;;;;3.35;0.75;;;18.10;68.20;;;;;;5033588;28;20056;-80
2021/10/11 12:06:46;;;;;;;3.45;0.75;;;18.00;67.90;;;;;;5036558;28;20469;-81
2021/10/11 12:09:12;;;;;;;3.08;0.77;;;18.10;68.00;;;;;;5007628;28;20018;-80
2021/10/11 12:11:39;;;;;;;1.92;0.70;;;18.20;67.70;;;;;;5048425;28;20058;-79
2021/10/11 12:14:05;;;;;;;2.28;0.90;;;18.20;67.40;;;;;;5055966;28;20073;-78
2021/10/11 12:16:32;;;;;;;5.88;1.00;;;18.20;67.00;;;;;;5034737;28;20080;-77
2021/10/11 12:19:04;;;;;;;2.80;0.90;;;18.10;66.60;;;;;;5014284;28;20105;-80
2021/10/11 12:21:38;;;;;;;3.58;1.02;;;18.00;66.90;;;;;;5027572;28;20393;-81
2021/10/11 12:24:18;;;;;;;2.40;0.73;;;17.90;66.70;;;;;;5012340;28;20084;-80
2021/10/11 12:26:58;;;;;;;2.53;0.90;;;17.70;66.90;;;;;;5000261;28;20583;-78
2021/10/11 12:29:27;;;;;;;2.30;0.80;;;17.60;67.20;;;;;;5017471;28;20054;-78
2021/10/11 12:32:09;;;;;;;3.45;0.90;;;17.50;67.40;;;;;;5006658;28;20387;-78
2021/10/11 12:34:38;;;;;;;1.85;0.60;;;17.30;67.30;;;;;;5009550;28;20038;-78
2021/10/11 12:37:10;;;;;;;3.50;0.65;;;17.20;67.60;;;;;;5028535;28;20022;-79
2021/10/11 12:39:42;;;;;;;2.25;0.70;;;17.20;67.50;;;;;;5015119;28;20026;-80
2021/10/11 12:42:14;;;;;;;2.63;0.73;;;17.00;67.40;;;;;;5008290;28;20396;-79
2021/10/11 12:44:45;;;;;;;2.33;0.73;;;16.90;67.30;;;;;;5003400;28;20052;-81
2021/10/11 12:47:26;;;;;;;2.22;0.68;;;16.80;67.10;;;;;;5004739;28;20083;-79
2021/10/11 12:49:58;;;;;;;1.45;0.65;;;16.60;67.40;;;;;;5003318;28;20740;-77